Station: Temora  

  Atmospheric Gas Attenuation - ITU Rec 676-11   ----------------- dB/100km -----------------
Date Time Temp RH % AH g/m3 Dew Point Wind Direction Speed kph Gust kph Barometer mB Rainfall Since 9am 24GHz 47GHz 76GHz 122GHz 134GHz 241GHz
08/05 12:30 13.5 71 8.31 8.4 20 30 1023.2 0 19.0 25.9 39.2 102.8 95.7 329.1
08/05 12:20 13.2 72 8.27 8.3 19 26 1023.3 0 18.9 25.9 39.2 102.7 95.6 328.5
08/05 12:10 13.1 72 8.22 8.2 26 30 1023.6 0 18.8 25.9 39.1 102.4 95.1 326.7
08/05 12:00 12.9 73 8.23 8.2 20 32 1023.5 0 18.8 25.9 39.2 102.7 95.4 327.9
08/05 11:50 12.7 73 8.13 8 22 30 1023.7 0 18.6 25.8 38.9 101.9 94.4 324.2
08/05 11:40 12.7 73 8.13 8 24 30 1023.7 0 18.6 25.8 38.9 101.9 94.4 324.2
08/05 11:30 12.8 73 8.18 8.1 19 28 1023.8 0 18.7 25.9 39.1 102.3 94.9 326.1
08/05 11:20 12.7 74 8.24 8.2 22 28 1024 0 18.9 26.0 39.4 103.1 95.9 329.4
08/05 11:10 12.4 76 8.3 8.3 22 28 1024.1 0 19.0 26.2 39.8 104.2 97.1 333.5
08/05 11:00 12.1 75 8.04 7.8 19 30 1024.2 0 18.5 25.9 38.9 101.8 94.0 322.6
08/05 10:50 11.9 76 8.05 7.8 28 32 1024.2 0 18.5 26.0 39.0 102.2 94.3 323.9
08/05 10:40 12.1 75 8.04 7.8 24 26 1024.1 0 18.5 25.9 38.9 101.8 93.9 322.5
08/05 10:30 12.1 75 8.04 7.8 24 33 1024.1 0 18.5 25.9 38.9 101.8 93.9 322.5
08/05 10:20 12.2 74 7.99 7.7 26 32 1024.1 0 18.4 25.8 38.6 101.1 93.2 319.8
08/05 10:10 12.3 74 8.04 7.8 20 22 1024.1 0 18.5 25.8 38.8 101.5 93.7 321.7
08/05 10:00 11.9 75 7.94 7.6 24 32 1024.1 0 18.3 25.8 38.6 101.0 92.9 318.7
08/05 09:50 11.8 76 8 7.7 20 22 1024.1 0 18.4 25.9 38.8 101.7 93.8 321.9
08/05 09:40 11.4 76 7.8 7.3 24 28 1024.2 0 18.0 25.7 38.2 100.1 91.6 314.2
08/05 09:30 11.5 76 7.85 7.4 20 32 1024.2 0 18.1 25.8 38.4 100.5 92.1 316.1
08/05 09:20 11.1 80 8.06 7.8 22 28 1024.1 0 18.6 26.2 39.4 103.3 95.4 327.6
08/05 09:10 10.7 80 7.86 7.4 20 24 1024.1 0 18.1 26.0 38.8 101.6 93.2 319.8
08/05 09:00 10.4 84 8.1 7.8 22 32 1024 0 18.7 26.5 40.0 104.7 96.8 332.5
08/05 08:50 9.7 83 7.65 7 19 20 1024.1 0 17.7 25.9 38.4 100.6 91.6 313.9
08/05 08:40 9.8 82 7.61 6.9 19 24 1024.1 0 17.6 25.8 38.2 100.0 90.9 311.6
08/05 08:30 9.3 83 7.46 6.6 20 28 1023.9 0 17.3 25.7 37.8 99.0 89.4 306.4
08/05 08:20 9.2 83 7.41 6.5 22 24 1024 0 17.2 25.7 37.7 98.6 88.9 304.4
08/05 08:10 9.1 83 7.37 6.4 22 24 1024 0 17.2 25.6 37.6 98.3 88.5 302.9
08/05 08:00 9.1 82 7.28 6.2 19 24 1024 0 17.0 25.5 37.2 97.3 87.2 298.6
08/05 07:50 8.9 83 7.27 6.2 19 22 1024 0 17.0 25.5 37.3 97.4 87.3 298.9
08/05 07:40 8.8 82 7.14 5.9 17 19 1024 0 16.7 25.4 36.8 96.1 85.7 293.2
08/05 07:30 8.8 82 7.14 5.9 17 24 1023.9 0 16.7 25.4 36.8 96.1 85.7 293.1
08/05 07:20 8.7 81 7.01 5.6 20 24 1023.8 0 16.4 25.2 36.3 94.8 84.0 287.3
08/05 07:10 8.5 81 6.92 5.4 17 20 1023.8 0 16.2 25.1 36.0 94.1 83.0 283.8
08/05 07:00 8.3 81 6.83 5.2 19 26 1023.6 0 16.0 25.0 35.7 93.3 82.0 280.3
08/05 06:50 8.3 80 6.75 5.1 19 22 1023.5 0 15.9 24.8 35.4 92.4 81.0 276.5
08/05 06:40 8.2 80 6.7 5 15 20 1023.6 0 15.8 24.8 35.2 92.0 80.4 274.5
08/05 06:30 8.2 80 6.7 5 17 22 1023.5 0 15.8 24.8 35.2 92.0 80.4 274.5
08/05 06:20 8.2 80 6.7 5 17 20 1023.3 0 15.8 24.8 35.2 92.0 80.4 274.5
08/05 06:10 8.2 80 6.7 5 15 17 1023.2 0 15.8 24.8 35.2 92.0 80.4 274.4
08/05 06:00 8.1 80 6.66 4.9 17 22 1023.2 0 15.7 24.7 35.1 91.7 79.9 272.9
08/05 05:50 8.1 80 6.66 4.9 17 19 1023.3 0 15.7 24.7 35.1 91.7 79.9 272.9
08/05 05:40 8.1 80 6.66 4.9 17 20 1023.3 0 15.7 24.7 35.1 91.7 79.9 272.9
08/05 05:30 8 80 6.62 4.8 17 22 1023.4 0 15.6 24.7 35.0 91.4 79.5 271.4
08/05 05:20 7.8 81 6.61 4.7 15 20 1023.3 0 15.6 24.7 35.0 91.5 79.6 271.6
08/05 05:10 7.5 83 6.65 4.8 17 19 1023.5 0 15.7 24.9 35.3 92.3 80.4 274.6
08/05 05:00 7.2 83 6.52 4.5 13 20 1023.4 0 15.4 24.8 34.9 91.2 79.0 269.5
08/05 04:50 6.7 84 6.39 4.2 15 17 1023.3 0 15.2 24.7 34.6 90.4 77.7 265.0
08/05 04:40 6.5 85 6.38 4.2 15 17 1023.1 0 15.1 24.7 34.6 90.5 77.8 265.2
08/05 04:30 6.3 85 6.3 4 11 17 1023.1 0 15.0 24.6 34.4 89.8 76.9 262.1
08/05 04:20 6.2 83 6.11 3.5 9 11 1023 0 14.6 24.3 33.7 87.9 74.5 253.4
08/05 04:10 6.6 82 6.19 3.8 6 7 1022.7 0 14.7 24.4 33.8 88.3 75.1 255.8
08/05 04:00 7 81 6.28 4 9 13 1022.9 0 14.9 24.4 34.0 88.8 75.9 258.8
08/05 03:50 7.3 81 6.4 4.3 9 11 1023 0 15.2 24.5 34.4 89.8 77.3 263.4
08/05 03:40 7.3 81 6.4 4.3 7 7 1023 0 15.2 24.5 34.4 89.8 77.3 263.4
08/05 03:30 7 84 6.51 4.5 0 6 1023.3 0 15.4 24.8 35.0 91.3 79.1 269.7
08/05 03:20 6.8 85 6.5 4.5 7 9 1023.2 0 15.4 24.8 35.0 91.4 79.1 269.9
08/05 03:10 6.5 87 6.53 4.5 0 0 1023.3 0 15.5 25.0 35.3 92.1 79.8 272.4
08/05 03:00 6 89 6.46 4.3 4 7 1023.4 0 15.3 25.0 35.2 92.0 79.4 270.8
08/05 02:50 5.2 88 6.06 3.4 6 7 1023.3 0 14.5 24.6 33.9 88.5 74.8 254.4
08/05 02:40 5 87 5.92 3 9 9 1023.2 0 14.2 24.4 33.4 87.2 73.1 248.3
08/05 02:30 5.3 86 5.96 3.2 9 11 1023.3 0 14.3 24.4 33.5 87.3 73.3 249.3
08/05 02:20 5.6 83 5.87 2.9 7 9 1023.3 0 14.1 24.1 33.0 86.0 71.8 244.1
08/05 02:10 6.1 84 6.14 3.6 7 9 1023.3 0 14.6 24.4 33.9 88.3 75.0 255.2
08/05 02:00 5.9 84 6.06 3.4 7 9 1023.6 0 14.5 24.4 33.6 87.7 74.1 252.2
08/05 01:50 6 82 5.96 3.2 7 7 1023.7 0 14.3 24.2 33.2 86.5 72.7 247.2
08/05 01:40 6.2 82 6.03 3.4 9 11 1023.7 0 14.4 24.2 33.4 87.1 73.4 249.8
08/05 01:30 6.1 82 5.99 3.3 9 13 1023.9 0 14.3 24.2 33.3 86.8 73.0 248.3
08/05 01:20 5.7 83 5.91 3 7 9 1024 0 14.2 24.2 33.1 86.3 72.3 245.8
08/05 01:10 5.4 83 5.79 2.8 4 6 1024 0 13.9 24.1 32.8 85.4 71.0 241.1
08/05 01:00 5.1 82 5.61 2.3 6 9 1024 0 13.5 23.9 32.1 83.8 68.9 233.6
08/05 00:50 5.3 82 5.69 2.5 9 9 1024 0 13.7 23.9 32.4 84.4 69.7 236.8
08/05 00:40 5.4 81 5.66 2.4 11 13 1024 0 13.6 23.9 32.2 84.0 69.3 235.1
08/05 00:20 6.1 79 5.78 2.7 9 11 1024.2 0 13.9 23.9 32.4 84.5 70.2 238.6
08/05 00:10 5.9 79 5.7 2.5 7 9 1024.4 0 13.7 23.8 32.2 83.9 69.4 235.5
08/05 00:00 5.8 79 5.66 2.4 9 13 1024.6 0 13.6 23.8 32.1 83.6 68.9 234.0
07/05 23:50 5.8 78 5.59 2.3 9 11 1024.6 0 13.5 23.7 31.8 82.9 68.0 230.8
07/05 23:40 5.6 78 5.52 2.1 9 9 1024.7 0 13.3 23.6 31.6 82.3 67.3 228.1
07/05 23:30 5.4 77 5.38 1.7 7 9 1024.6 0 13.0 23.4 31.1 81.0 65.6 222.2
07/05 23:20 5.7 76 5.41 1.8 9 9 1024.7 0 13.1 23.4 31.1 81.1 65.7 222.8
07/05 23:10 5.8 76 5.45 1.9 7 9 1024.7 0 13.2 23.5 31.3 81.4 66.2 224.3
07/05 23:00 6.2 74 5.45 1.9 11 15 1024.6 0 13.2 23.3 31.1 81.0 65.8 223.2
07/05 22:50 6.6 73 5.51 2.1 13 13 1024.7 0 13.3 23.3 31.2 81.2 66.3 224.8
07/05 22:40 7 71 5.5 2.1 15 15 1024.7 0 13.2 23.2 31.0 80.7 65.8 223.2
07/05 22:30 7 71 5.5 2.1 15 19 1024.7 0 13.2 23.2 31.0 80.7 65.8 223.2
07/05 22:20 7.1 70 5.46 2 15 20 1024.8 0 13.1 23.1 30.8 80.2 65.2 221.1
07/05 22:10 7.4 69 5.49 2.1 13 15 1024.7 0 13.2 23.1 30.8 80.2 65.4 221.6
07/05 22:00 7.4 69 5.49 2.1 17 22 1024.8 0 13.2 23.1 30.8 80.2 65.4 221.7
07/05 21:50 7.6 68 5.48 2.1 17 20 1024.7 0 13.2 23.0 30.7 79.9 65.1 220.6
07/05 21:40 7.7 67 5.44 2 19 24 1024.7 0 13.1 22.9 30.5 79.3 64.5 218.6
07/05 21:30 7.8 66 5.39 1.9 17 24 1024.7 0 13.0 22.8 30.3 78.7 63.7 216.1
07/05 21:20 7.9 65 5.34 1.7 19 22 1024.6 0 12.9 22.7 30.0 78.1 63.0 213.5
07/05 21:10 8 65 5.38 1.8 20 24 1024.6 0 12.9 22.8 30.1 78.4 63.5 215.0
07/05 21:00 7.6 66 5.32 1.7 15 20 1024.5 0 12.8 22.8 30.1 78.2 63.0 213.4
07/05 20:50 7.7 65 5.27 1.5 15 17 1024.5 0 12.7 22.7 29.8 77.6 62.3 210.9
07/05 20:40 7.9 64 5.26 1.5 15 19 1024.4 0 12.7 22.6 29.7 77.3 62.0 209.9
07/05 20:30 7.8 65 5.31 1.6 17 26 1024.4 0 12.8 22.7 29.9 77.9 62.7 212.4
07/05 20:20 7.3 67 5.3 1.6 19 20 1024.6 0 12.8 22.8 30.1 78.3 63.0 213.4
07/05 20:10 7.2 67 5.26 1.5 13 15 1024.5 0 12.7 22.8 30.0 78.0 62.6 211.8
07/05 20:00 6.9 67 5.16 1.2 9 13 1024.5 0 12.5 22.7 29.7 77.2 61.5 208.1
07/05 19:50 7.4 65 5.17 1.3 9 11 1024.4 0 12.5 22.6 29.6 76.8 61.3 207.2

Last Refresh: 08-May-2026 12:10:21

Bureau of Meteorology